Time,TemperatureF,DewpointF,PressureIn,WindDirection,WindDirectionDegrees,WindSpeedMPH,WindSpeedGustMPH,Humidity,HourlyPrecipIn,Conditions,Clouds,dailyrainin,SoftwareType,DateUTC
2013-01-29 00:02:00,50.0,-99.9,30.27,West,274,6.0,9.0,-999,-99.99,,,-99.99,,2013-01-29 08:02:00,
2013-01-29 00:11:00,50.0,-99.9,30.27,West,272,2.0,7.0,-999,-99.99,,,-99.99,,2013-01-29 08:11:00,
2013-01-29 00:21:00,50.0,-99.9,30.27,WSW,255,3.0,7.0,-999,-99.99,,,-99.99,,2013-01-29 08:21:00,
2013-01-29 00:32:00,50.0,-99.9,30.27,WSW,250,6.0,8.0,-999,-99.99,,,-99.99,,2013-01-29 08:32:00,
2013-01-29 00:42:00,49.0,-99.9,30.27,WSW,257,7.0,11.0,-999,-99.99,,,-99.99,,2013-01-29 08:42:00,
2013-01-29 00:52:00,49.0,-99.9,30.27,WSW,255,6.0,9.0,-999,-99.99,,,-99.99,,2013-01-29 08:52:00,
2013-01-29 01:02:00,49.0,-99.9,30.27,WSW,244,5.0,8.0,-999,-99.99,,,-99.99,,2013-01-29 09:02:00,
2013-01-29 01:11:00,49.0,-99.9,30.27,WSW,245,5.0,6.0,-999,-99.99,,,-99.99,,2013-01-29 09:11:00,
2013-01-29 01:22:00,49.0,-99.9,30.27,WSW,247,3.0,4.0,-999,-99.99,,,-99.99,,2013-01-29 09:22:00,
2013-01-29 01:32:00,49.0,-99.9,30.27,WSW,253,3.0,7.0,-999,-99.99,,,-99.99,,2013-01-29 09:32:00,
2013-01-29 01:42:00,49.0,-99.9,30.27,WSW,253,2.0,4.0,-999,-99.99,,,-99.99,,2013-01-29 09:42:00,
2013-01-29 01:52:00,49.0,-99.9,30.27,WSW,255,4.0,6.0,-999,-99.99,,,-99.99,,2013-01-29 09:52:00,
2013-01-29 02:02:00,49.0,-99.9,30.27,WSW,245,3.0,4.0,-999,-99.99,,,-99.99,,2013-01-29 10:02:00,
2013-01-29 02:11:00,49.0,-99.9,30.27,West,259,2.0,3.0,-999,-99.99,,,-99.99,,2013-01-29 10:11:00,
2013-01-29 02:22:00,49.0,-99.9,30.27,WSW,239,4.0,6.0,-999,-99.99,,,-99.99,,2013-01-29 10:22:00,
2013-01-29 02:32:00,49.0,-99.9,30.28,WSW,254,4.0,7.0,-999,-99.99,,,-99.99,,2013-01-29 10:32:00,
2013-01-29 02:42:00,49.0,-99.9,30.28,WSW,253,3.0,7.0,-999,-99.99,,,-99.99,,2013-01-29 10:42:00,
2013-01-29 02:52:00,49.0,-99.9,30.28,WSW,253,3.0,6.0,-999,-99.99,,,-99.99,,2013-01-29 10:52:00,
2013-01-29 03:02:00,49.0,-99.9,30.29,WSW,255,2.0,5.0,-999,-99.99,,,-99.99,,2013-01-29 11:02:00,
2013-01-29 03:12:00,49.0,-99.9,30.29,WSW,251,3.0,4.0,-999,-99.99,,,-99.99,,2013-01-29 11:12:00,
2013-01-29 03:22:00,49.0,-99.9,30.29,West,274,2.0,3.0,-999,-99.99,,,-99.99,,2013-01-29 11:22:00,
2013-01-29 03:32:00,49.0,-99.9,30.28,WSW,257,3.0,4.0,-999,-99.99,,,-99.99,,2013-01-29 11:32:00,
2013-01-29 03:42:00,49.0,-99.9,30.27,WSW,246,4.0,5.0,-999,-99.99,,,-99.99,,2013-01-29 11:42:00,
2013-01-29 03:53:00,49.0,-99.9,30.28,West,268,3.0,6.0,-999,-99.99,,,-99.99,,2013-01-29 11:53:00,
2013-01-29 04:03:00,49.0,-99.9,30.28,West,279,3.0,5.0,-999,-99.99,,,-99.99,,2013-01-29 12:03:00,
2013-01-29 04:12:00,49.0,-99.9,30.28,WSW,242,3.0,5.0,-999,-99.99,,,-99.99,,2013-01-29 12:12:00,
2013-01-29 04:22:00,49.0,-99.9,30.28,SW,228,2.0,5.0,-999,-99.99,,,-99.99,,2013-01-29 12:22:00,
2013-01-29 04:33:00,49.0,-99.9,30.28,WSW,248,1.0,3.0,-999,-99.99,,,-99.99,,2013-01-29 12:33:00,
2013-01-29 04:43:00,49.0,-99.9,30.28,WNW,301,4.0,6.0,-999,-99.99,,,-99.99,,2013-01-29 12:43:00,
2013-01-29 04:53:00,49.0,-99.9,30.28,West,274,5.0,7.0,-999,-99.99,,,-99.99,,2013-01-29 12:53:00,
2013-01-29 05:02:00,49.0,-99.9,30.28,West,272,3.0,4.0,-999,-99.99,,,-99.99,,2013-01-29 13:02:00,
2013-01-29 05:12:00,49.0,-99.9,30.28,West,270,3.0,4.0,-999,-99.99,,,-99.99,,2013-01-29 13:12:00,
2013-01-29 05:23:00,49.0,-99.9,30.29,WSW,254,4.0,5.0,-999,-99.99,,,-99.99,,2013-01-29 13:23:00,
2013-01-29 05:32:00,49.0,-99.9,30.29,WSW,254,2.0,4.0,-999,-99.99,,,-99.99,,2013-01-29 13:32:00,
2013-01-29 05:43:00,49.0,-99.9,30.29,WSW,254,2.0,3.0,-999,-99.99,,,-99.99,,2013-01-29 13:43:00,
2013-01-29 05:53:00,49.0,-99.9,30.29,WSW,252,3.0,5.0,-999,-99.99,,,-99.99,,2013-01-29 13:53:00,
2013-01-29 06:02:00,48.0,-99.9,30.29,WNW,300,2.0,3.0,-999,-99.99,,,-99.99,,2013-01-29 14:02:00,
2013-01-29 06:12:00,48.0,-99.9,30.29,West,274,2.0,3.0,-999,-99.99,,,-99.99,,2013-01-29 14:12:00,
2013-01-29 06:22:00,49.0,-99.9,30.29,WSW,243,1.0,4.0,-999,-99.99,,,-99.99,,2013-01-29 14:22:00,
2013-01-29 06:33:00,49.0,-99.9,30.29,WSW,243,1.0,4.0,-999,-99.99,,,-99.99,,2013-01-29 14:33:00,
2013-01-29 06:43:00,49.0,-99.9,30.30,West,261,2.0,5.0,-999,-99.99,,,-99.99,,2013-01-29 14:43:00,
2013-01-29 06:53:00,49.0,-99.9,30.30,West,265,2.0,4.0,-999,-99.99,,,-99.99,,2013-01-29 14:53:00,
2013-01-29 07:03:00,48.0,-99.9,30.30,WNW,294,2.0,3.0,-999,-99.99,,,-99.99,,2013-01-29 15:03:00,
2013-01-29 07:12:00,48.0,-99.9,30.31,West,267,3.0,5.0,-999,-99.99,,,-99.99,,2013-01-29 15:12:00,
2013-01-29 07:22:00,49.0,-99.9,30.31,WSW,254,2.0,5.0,-999,-99.99,,,-99.99,,2013-01-29 15:22:00,
2013-01-29 07:33:00,49.0,-99.9,30.31,WSW,251,2.0,4.0,-999,-99.99,,,-99.99,,2013-01-29 15:33:00,
2013-01-29 07:43:00,49.0,-99.9,30.30,West,261,3.0,4.0,-999,-99.99,,,-99.99,,2013-01-29 15:43:00,
2013-01-29 07:53:00,49.0,-99.9,30.31,West,268,2.0,4.0,-999,-99.99,,,-99.99,,2013-01-29 15:53:00,
2013-01-29 08:03:00,49.0,-99.9,30.31,West,261,3.0,4.0,-999,-99.99,,,-99.99,,2013-01-29 16:03:00,
2013-01-29 08:13:00,49.0,-99.9,30.32,NW,312,2.0,3.0,-999,-99.99,,,-99.99,,2013-01-29 16:13:00,
2013-01-29 08:23:00,49.0,-99.9,30.32,NW,306,4.0,4.0,-999,-99.99,,,-99.99,,2013-01-29 16:23:00,
2013-01-29 08:33:00,49.0,-99.9,30.32,NW,319,1.0,2.0,-999,-99.99,,,-99.99,,2013-01-29 16:33:00,
2013-01-29 08:43:00,49.0,-99.9,30.32,WSW,249,2.0,3.0,-999,-99.99,,,-99.99,,2013-01-29 16:43:00,
2013-01-29 08:53:00,50.0,-99.9,30.32,WSW,258,2.0,4.0,-999,-99.99,,,-99.99,,2013-01-29 16:53:00,
2013-01-29 09:03:00,49.0,-99.9,30.32,NNW,327,5.0,6.0,-999,-99.99,,,-99.99,,2013-01-29 17:03:00,
2013-01-29 09:12:00,49.0,-99.9,30.32,NNW,329,5.0,6.0,-999,-99.99,,,-99.99,,2013-01-29 17:12:00,
2013-01-29 09:22:00,49.0,-99.9,30.32,NW,317,6.0,8.0,-999,-99.99,,,-99.99,,2013-01-29 17:22:00,
2013-01-29 09:33:00,49.0,-99.9,30.32,NW,317,5.0,8.0,-999,-99.99,,,-99.99,,2013-01-29 17:33:00,
2013-01-29 09:42:00,49.0,-99.9,30.32,NW,318,6.0,8.0,-999,-99.99,,,-99.99,,2013-01-29 17:42:00,
2013-01-29 09:53:00,49.0,-99.9,30.32,NNW,331,6.0,8.0,-999,-99.99,,,-99.99,,2013-01-29 17:53:00,
2013-01-29 10:04:00,49.0,-99.9,30.33,NNW,341,6.0,8.0,-999,-99.99,,,-99.99,,2013-01-29 18:04:00,
2013-01-29 10:13:00,49.0,-99.9,30.33,NNW,345,6.0,7.0,-999,-99.99,,,-99.99,,2013-01-29 18:13:00,
2013-01-29 10:22:00,49.0,-99.9,30.33,NNW,329,5.0,7.0,-999,-99.99,,,-99.99,,2013-01-29 18:22:00,
2013-01-29 10:33:00,49.0,-99.9,30.33,NNW,339,7.0,8.0,-999,-99.99,,,-99.99,,2013-01-29 18:33:00,
2013-01-29 10:42:00,49.0,-99.9,30.34,NNW,343,6.0,8.0,-999,-99.99,,,-99.99,,2013-01-29 18:42:00,
2013-01-29 10:52:00,49.0,-99.9,30.34,North,350,6.0,7.0,-999,-99.99,,,-99.99,,2013-01-29 18:52:00,
2013-01-29 11:03:00,49.0,-99.9,30.34,North,350,6.0,7.0,-999,-99.99,,,-99.99,,2013-01-29 19:03:00,
2013-01-29 11:12:00,49.0,-99.9,30.34,NNW,330,3.0,5.0,-999,-99.99,,,-99.99,,2013-01-29 19:12:00,
2013-01-29 11:23:00,50.0,-99.9,30.34,NNW,333,2.0,2.0,-999,-99.99,,,-99.99,,2013-01-29 19:23:00,
2013-01-29 11:33:00,50.0,-99.9,30.33,North,349,1.0,3.0,-999,-99.99,,,-99.99,,2013-01-29 19:33:00,
2013-01-29 11:42:00,50.0,-99.9,30.34,North,353,2.0,3.0,-999,-99.99,,,-99.99,,2013-01-29 19:42:00,
2013-01-29 11:52:00,50.0,-99.9,30.34,North,358,2.0,3.0,-999,-99.99,,,-99.99,,2013-01-29 19:52:00,
2013-01-29 12:03:00,50.0,-99.9,30.34,North,354,3.0,4.0,-999,-99.99,,,-99.99,,2013-01-29 20:03:00,
2013-01-29 12:13:00,50.0,-99.9,30.33,NNW,340,3.0,4.0,-999,-99.99,,,-99.99,,2013-01-29 20:13:00,
2013-01-29 12:23:00,50.0,-99.9,30.33,North,358,3.0,4.0,-999,-99.99,,,-99.99,,2013-01-29 20:23:00,
2013-01-29 12:33:00,51.0,-99.9,30.32,NNW,333,2.0,3.0,-999,-99.99,,,-99.99,,2013-01-29 20:33:00,
2013-01-29 12:43:00,51.0,-99.9,30.32,NW,305,2.0,2.0,-999,-99.99,,,-99.99,,2013-01-29 20:43:00,
2013-01-29 12:54:00,51.0,-99.9,30.31,NNW,336,2.0,3.0,-999,-99.99,,,-99.99,,2013-01-29 20:54:00,
2013-01-29 13:03:00,51.0,-99.9,30.30,NW,322,3.0,4.0,-999,-99.99,,,-99.99,,2013-01-29 21:03:00,
2013-01-29 13:13:00,51.0,-99.9,30.30,North,350,4.0,4.0,-999,-99.99,,,-99.99,,2013-01-29 21:13:00,
2013-01-29 13:22:00,51.0,-99.9,30.30,North,349,5.0,5.0,-999,-99.99,,,-99.99,,2013-01-29 21:22:00,
2013-01-29 13:34:00,51.0,-99.9,30.30,NNW,346,6.0,6.0,-999,-99.99,,,-99.99,,2013-01-29 21:34:00,
2013-01-29 13:42:00,51.0,-99.9,30.29,NNW,342,6.0,6.0,-999,-99.99,,,-99.99,,2013-01-29 21:42:00,
2013-01-29 13:53:00,51.0,-99.9,30.28,NNW,342,5.0,7.0,-999,-99.99,,,-99.99,,2013-01-29 21:53:00,
2013-01-29 14:03:00,51.0,-99.9,30.28,NNW,338,6.0,6.0,-999,-99.99,,,-99.99,,2013-01-29 22:03:00,
2013-01-29 14:12:00,51.0,-99.9,30.28,NNW,333,6.0,7.0,-999,-99.99,,,-99.99,,2013-01-29 22:12:00,
2013-01-29 14:22:00,51.0,-99.9,30.27,NNW,334,8.0,10.0,-999,-99.99,,,-99.99,,2013-01-29 22:22:00,
2013-01-29 14:33:00,53.0,-99.9,30.26,NW,316,8.0,10.0,-999,-99.99,,,-99.99,,2013-01-29 22:33:00,
2013-01-29 14:43:00,53.0,-99.9,30.27,NW,319,8.0,10.0,-999,-99.99,,,-99.99,,2013-01-29 22:43:00,
2013-01-29 14:53:00,56.0,-99.9,30.26,WSW,257,8.0,11.0,-999,-99.99,,,-99.99,,2013-01-29 22:53:00,
2013-01-29 15:03:00,56.0,-99.9,30.26,West,259,5.0,13.0,-999,-99.99,,,-99.99,,2013-01-29 23:03:00,
2013-01-29 15:12:00,55.0,-99.9,30.26,WSW,245,8.0,12.0,-999,-99.99,,,-99.99,,2013-01-29 23:12:00,
2013-01-29 15:23:00,56.0,-99.9,30.26,WSW,249,6.0,9.0,-999,-99.99,,,-99.99,,2013-01-29 23:23:00,
2013-01-29 15:33:00,56.0,-99.9,30.26,WSW,249,5.0,6.0,-999,-99.99,,,-99.99,,2013-01-29 23:33:00,
2013-01-29 15:42:00,56.0,-99.9,30.26,WSW,244,6.0,9.0,-999,-99.99,,,-99.99,,2013-01-29 23:42:00,
2013-01-29 15:53:00,56.0,-99.9,30.26,WSW,251,7.0,10.0,-999,-99.99,,,-99.99,,2013-01-29 23:53:00,
2013-01-29 16:03:00,57.0,-99.9,30.26,SW,233,5.0,13.0,-999,-99.99,,,-99.99,,2013-01-30 00:03:00,
2013-01-29 16:12:00,57.0,-99.9,30.26,WSW,240,6.0,12.0,-999,-99.99,,,-99.99,,2013-01-30 00:12:00,
2013-01-29 16:22:00,57.0,-99.9,30.25,WSW,243,7.0,11.0,-999,-99.99,,,-99.99,,2013-01-30 00:22:00,
2013-01-29 16:33:00,56.0,-99.9,30.25,WSW,246,9.0,12.0,-999,-99.99,,,-99.99,,2013-01-30 00:33:00,
2013-01-29 16:43:00,56.0,-99.9,30.25,WSW,246,9.0,12.0,-999,-99.99,,,-99.99,,2013-01-30 00:43:00,
2013-01-29 16:53:00,56.0,-99.9,30.25,WSW,238,7.0,11.0,-999,-99.99,,,-99.99,,2013-01-30 00:53:00,
2013-01-29 17:02:00,56.0,-99.9,30.25,WSW,238,7.0,11.0,-999,-99.99,,,-99.99,,2013-01-30 01:02:00,
2013-01-29 17:12:00,56.0,-99.9,30.25,WSW,243,6.0,7.0,-999,-99.99,,,-99.99,,2013-01-30 01:12:00,
2013-01-29 17:23:00,56.0,-99.9,30.25,WSW,243,9.0,12.0,-999,-99.99,,,-99.99,,2013-01-30 01:23:00,
2013-01-29 17:32:00,56.0,-99.9,30.25,WSW,243,9.0,12.0,-999,-99.99,,,-99.99,,2013-01-30 01:32:00,
2013-01-29 17:43:00,56.0,-99.9,30.25,WSW,244,4.0,9.0,-999,-99.99,,,-99.99,,2013-01-30 01:43:00,
2013-01-29 17:52:00,55.0,-99.9,30.25,East,81,0.0,4.0,-999,-99.99,,,-99.99,,2013-01-30 01:52:00,
2013-01-29 18:03:00,56.0,-99.9,30.25,WSW,246,4.0,6.0,-999,-99.99,,,-99.99,,2013-01-30 02:03:00,
2013-01-29 18:12:00,56.0,-99.9,30.25,WSW,254,5.0,6.0,-999,-99.99,,,-99.99,,2013-01-30 02:12:00,
2013-01-29 18:22:00,55.0,-99.9,30.25,WSW,243,5.0,6.0,-999,-99.99,,,-99.99,,2013-01-30 02:22:00,
2013-01-29 18:33:00,54.0,-99.9,30.25,SE,128,2.0,4.0,-999,-99.99,,,-99.99,,2013-01-30 02:33:00,
2013-01-29 18:42:00,53.0,-99.9,30.26,SE,144,2.0,2.0,-999,-99.99,,,-99.99,,2013-01-30 02:42:00,
2013-01-29 18:53:00,53.0,-99.9,30.26,SE,124,1.0,2.0,-999,-99.99,,,-99.99,,2013-01-30 02:53:00,
2013-01-29 19:03:00,53.0,-99.9,30.26,South,180,1.0,2.0,-999,-99.99,,,-99.99,,2013-01-30 03:03:00,
2013-01-29 19:12:00,53.0,-99.9,30.27,East,86,1.0,2.0,-999,-99.99,,,-99.99,,2013-01-30 03:12:00,
2013-01-29 19:22:00,52.0,-99.9,30.27,NW,314,1.0,3.0,-999,-99.99,,,-99.99,,2013-01-30 03:22:00,
2013-01-29 19:32:00,52.0,-99.9,30.27,WSW,252,2.0,2.0,-999,-99.99,,,-99.99,,2013-01-30 03:32:00,
2013-01-29 19:42:00,53.0,-99.9,30.27,ESE,105,0.0,2.0,-999,-99.99,,,-99.99,,2013-01-30 03:42:00,
2013-01-29 19:52:00,52.0,-99.9,30.27,East,100,2.0,2.0,-999,-99.99,,,-99.99,,2013-01-30 03:52:00,
2013-01-29 20:02:00,53.0,-99.9,30.27,NNE,27,1.0,1.0,-999,-99.99,,,-99.99,,2013-01-30 04:02:00,
2013-01-29 20:12:00,53.0,-99.9,30.27,NNE,27,1.0,1.0,-999,-99.99,,,-99.99,,2013-01-30 04:12:00,
2013-01-29 20:22:00,52.0,-99.9,30.27,SE,144,-999.0,2.0,-999,-99.99,,,-99.99,,2013-01-30 04:22:00,
2013-01-29 20:32:00,52.0,-99.9,30.27,East,83,3.0,3.0,-999,-99.99,,,-99.99,,2013-01-30 04:32:00,
2013-01-29 20:42:00,52.0,-99.9,30.27,ESE,115,4.0,4.0,-999,-99.99,,,-99.99,,2013-01-30 04:42:00,
2013-01-29 20:52:00,52.0,-99.9,30.27,South,187,0.0,2.0,-999,-99.99,,,-99.99,,2013-01-30 04:52:00,
2013-01-29 21:04:00,52.0,-99.9,30.28,NNW,347,2.0,2.0,-999,-99.99,,,-99.99,,2013-01-30 05:04:00,
2013-01-29 21:12:00,52.0,-99.9,30.27,West,259,3.0,3.0,-999,-99.99,,,-99.99,,2013-01-30 05:12:00,
2013-01-29 21:22:00,53.0,-99.9,30.27,NNE,29,1.0,2.0,-999,-99.99,,,-99.99,,2013-01-30 05:22:00,
2013-01-29 21:33:00,52.0,-99.9,30.27,WNW,294,1.0,2.0,-999,-99.99,,,-99.99,,2013-01-30 05:33:00,
2013-01-29 21:43:00,53.0,-99.9,30.27,NW,326,1.0,2.0,-999,-99.99,,,-99.99,,2013-01-30 05:43:00,
2013-01-29 21:52:00,52.0,-99.9,30.27,WNW,289,1.0,4.0,-999,-99.99,,,-99.99,,2013-01-30 05:52:00,
2013-01-29 22:02:00,52.0,-99.9,30.27,WNW,282,3.0,4.0,-999,-99.99,,,-99.99,,2013-01-30 06:02:00,
2013-01-29 22:12:00,52.0,-99.9,30.27,WNW,282,3.0,4.0,-999,-99.99,,,-99.99,,2013-01-30 06:12:00,
2013-01-29 22:22:00,53.0,-99.9,30.26,NNW,345,2.0,2.0,-999,-99.99,,,-99.99,,2013-01-30 06:22:00,
2013-01-29 22:32:00,52.0,-99.9,30.27,NW,326,1.0,2.0,-999,-99.99,,,-99.99,,2013-01-30 06:32:00,
2013-01-29 22:42:00,52.0,-99.9,30.27,WNW,293,1.0,1.0,-999,-99.99,,,-99.99,,2013-01-30 06:42:00,
2013-01-29 22:52:00,51.0,-99.9,30.27,ESE,110,8.0,9.0,-999,-99.99,,,-99.99,,2013-01-30 06:52:00,
2013-01-29 23:02:00,50.0,-99.9,30.27,East,94,6.0,6.0,-999,-99.99,,,-99.99,,2013-01-30 07:02:00,
2013-01-29 23:12:00,50.0,-99.9,30.27,ESE,122,4.0,6.0,-999,-99.99,,,-99.99,,2013-01-30 07:12:00,
2013-01-29 23:22:00,50.0,-99.9,30.27,East,88,3.0,3.0,-999,-99.99,,,-99.99,,2013-01-30 07:22:00,
2013-01-29 23:32:00,50.0,-99.9,30.27,East,88,3.0,3.0,-999,-99.99,,,-99.99,,2013-01-30 07:32:00,
2013-01-29 23:42:00,50.0,-99.9,30.27,NE,48,2.0,3.0,-999,-99.99,,,-99.99,,2013-01-30 07:42:00,
2013-01-29 23:52:00,50.0,-99.9,30.27,East,79,0.0,3.0,-999,-99.99,,,-99.99,,2013-01-30 07:52:00,